Rockton, Pennsylvania
Current Conditions -  °F | °C
As of 1:54 PM on Thursday 23 Oct 2014 (Local Time) from KFIG Reporting Station
Clear Clear  
Wind Chill: 60°   Ceiling: Unl
Heat Index: 60°   Visibility: 10mi
Dew Point: 39°   Wind: 21mph
Humidity: 46%   Direction: 350°N
Pressure: 29.97"   Gusts: 33mph
Location:  41.08°N, 78.65°W
Report Text: KFIG 231754Z AUTO 35018G29KT 10SM CLR 16/04 A2997 RMK AO2 PK WND 33029/1745 SLP151 T01560039 10156 20067 58018
Loading
Personal Weather Stations






























Interactive Weather Map
Tropical Storm Tracking
New forecast layout! Learn more

10-Day Weather Forecast

Advertisements
Track Severe Weather on mobile